createdAt,value
2022-10-20T00:00:05.688Z,3.50
2022-10-20T00:03:13.188Z,4.30
2022-10-20T00:06:20.999Z,3.70
2022-10-20T00:09:28.537Z,4.30
2022-10-20T00:12:36.455Z,3.50
2022-10-20T00:15:44.730Z,3.90
2022-10-20T00:18:52.278Z,3.90
2022-10-20T00:21:59.540Z,4.40
2022-10-20T00:25:10.491Z,4.30
2022-10-20T00:28:17.728Z,4.40
2022-10-20T00:31:25.925Z,5.30
2022-10-20T00:34:33.949Z,3.90
2022-10-20T00:37:41.173Z,4.10
2022-10-20T00:40:49.273Z,4.40
2022-10-20T00:43:57.414Z,4.20
2022-10-20T00:47:04.704Z,4.60
2022-10-20T00:50:12.724Z,4.40
2022-10-20T00:53:20.695Z,4.00
2022-10-20T00:56:28.375Z,4.60
2022-10-20T00:59:35.998Z,4.10
2022-10-20T01:02:43.535Z,4.20
2022-10-20T01:05:51.626Z,5.00
2022-10-20T01:08:59.175Z,4.80
2022-10-20T01:12:06.935Z,4.30
2022-10-20T01:15:14.908Z,5.00
2022-10-20T01:18:22.035Z,4.90
2022-10-20T01:21:29.680Z,4.60
2022-10-20T01:24:37.336Z,4.70
2022-10-20T01:27:44.458Z,4.40
2022-10-20T01:30:52.223Z,4.70
2022-10-20T01:34:00.144Z,5.10
2022-10-20T01:37:07.231Z,5.10
2022-10-20T01:40:15.285Z,5.40
2022-10-20T01:43:22.440Z,5.20
2022-10-20T01:46:30.352Z,4.80
2022-10-20T01:49:38.370Z,5.00
2022-10-20T01:52:45.558Z,5.60
2022-10-20T01:55:53.613Z,5.30
2022-10-20T01:59:01.685Z,5.60
2022-10-20T02:02:08.883Z,5.70
2022-10-20T02:05:16.986Z,5.70
2022-10-20T02:08:25.057Z,5.40
2022-10-20T02:11:32.297Z,5.20
2022-10-20T02:14:40.207Z,5.20
2022-10-20T02:17:47.688Z,5.40
2022-10-20T02:20:55.219Z,5.10
2022-10-20T02:24:03.360Z,5.40
2022-10-20T02:27:10.928Z,5.30
2022-10-20T02:30:18.537Z,5.00
2022-10-20T02:33:26.161Z,5.70
2022-10-20T02:36:34.202Z,5.00
2022-10-20T02:39:41.820Z,4.90
2022-10-20T02:42:49.615Z,4.70
2022-10-20T02:45:57.351Z,5.30
2022-10-20T02:49:05.312Z,4.70
2022-10-20T02:52:13.002Z,4.90
2022-10-20T02:55:20.645Z,4.80
2022-10-20T02:58:28.364Z,5.10
2022-10-20T03:01:36.412Z,5.20
2022-10-20T03:04:44.040Z,5.10
2022-10-20T03:07:51.674Z,5.80
2022-10-20T03:10:59.816Z,4.90
2022-10-20T03:14:07.410Z,5.60
2022-10-20T03:17:15.008Z,5.50
2022-10-20T03:20:22.805Z,5.30
2022-10-20T03:23:29.845Z,5.30
2022-10-20T03:26:37.617Z,5.50
2022-10-20T03:29:45.588Z,5.30
2022-10-20T03:32:52.712Z,5.00
2022-10-20T03:36:00.640Z,5.40
2022-10-20T03:39:08.460Z,4.90
2022-10-20T03:42:15.620Z,5.10
2022-10-20T03:45:23.433Z,4.80
2022-10-20T03:48:31.091Z,4.60
2022-10-20T03:51:38.675Z,5.30
2022-10-20T03:54:46.435Z,4.60
2022-10-20T03:57:53.894Z,4.90
2022-10-20T04:01:01.457Z,4.70
2022-10-20T04:04:08.944Z,5.10
2022-10-20T04:07:16.504Z,4.50
2022-10-20T04:10:24.004Z,4.60
2022-10-20T04:13:31.675Z,4.60
2022-10-20T04:16:39.288Z,5.00
2022-10-20T04:19:46.855Z,4.90
2022-10-20T04:22:54.497Z,4.20
2022-10-20T04:26:02.206Z,5.10
2022-10-20T04:29:09.847Z,4.70
2022-10-20T04:32:17.556Z,4.80
2022-10-20T04:35:25.049Z,4.90
2022-10-20T04:38:33.171Z,4.90
2022-10-20T04:41:40.916Z,4.90
2022-10-20T04:44:48.685Z,5.00
2022-10-20T04:47:56.220Z,4.70
2022-10-20T04:51:04.341Z,4.90
2022-10-20T04:54:11.608Z,4.90
2022-10-20T04:57:19.412Z,4.80
2022-10-20T05:00:27.432Z,4.30
2022-10-20T05:03:34.893Z,4.60
2022-10-20T05:06:42.482Z,4.60
2022-10-20T05:09:50.442Z,4.20
2022-10-20T05:12:57.945Z,4.70
2022-10-20T05:16:05.654Z,4.10
2022-10-20T05:19:13.634Z,4.30
2022-10-20T05:22:20.826Z,4.40
2022-10-20T05:25:36.452Z,4.40
2022-10-20T05:28:33.615Z,4.70
2022-10-20T05:31:40.787Z,4.50
2022-10-20T05:34:48.738Z,4.50
2022-10-20T05:37:56.617Z,4.20
2022-10-20T05:41:03.887Z,4.60
2022-10-20T05:44:11.550Z,5.60
2022-10-20T05:47:19.158Z,5.20
2022-10-20T05:50:26.701Z,5.30
2022-10-20T05:53:34.741Z,5.90
2022-10-20T05:56:42.318Z,5.40
2022-10-20T05:59:49.870Z,6.20
2022-10-20T06:02:58.037Z,6.20
2022-10-20T06:06:05.513Z,6.70
2022-10-20T06:09:12.933Z,6.50
2022-10-20T06:12:20.372Z,7.70
2022-10-20T06:15:28.650Z,6.30
2022-10-20T06:18:36.239Z,6.60
2022-10-20T06:21:43.674Z,7.30
2022-10-20T06:24:51.435Z,6.30
2022-10-20T06:27:58.993Z,6.40
2022-10-20T06:31:06.316Z,6.70
2022-10-20T06:34:14.151Z,6.70
2022-10-20T06:37:21.636Z,6.20
2022-10-20T06:40:29.287Z,6.10
2022-10-20T06:43:37.338Z,6.50
2022-10-20T06:46:44.618Z,7.10
2022-10-20T06:49:52.558Z,6.40
2022-10-20T06:53:00.551Z,6.20
2022-10-20T06:56:07.630Z,6.20
2022-10-20T06:59:15.287Z,6.00
2022-10-20T07:02:23.181Z,6.70
2022-10-20T07:05:30.401Z,6.30
2022-10-20T07:08:38.555Z,6.00
2022-10-20T07:11:45.985Z,6.50
2022-10-20T07:14:53.482Z,6.70
2022-10-20T07:18:01.303Z,6.20
2022-10-20T07:21:08.885Z,6.50
2022-10-20T07:24:16.414Z,5.80
2022-10-20T07:27:24.315Z,5.90
2022-10-20T07:30:31.519Z,6.00
2022-10-20T07:33:39.539Z,6.40
2022-10-20T07:36:47.405Z,5.80
2022-10-20T07:39:54.656Z,5.80
2022-10-20T07:43:02.537Z,6.20
2022-10-20T07:46:10.057Z,6.90
2022-10-20T07:52:22.853Z,5.80
2022-10-20T07:55:38.672Z,5.80
2022-10-20T07:58:34.970Z,5.80
2022-10-20T08:01:42.568Z,5.70
2022-10-20T08:04:50.561Z,5.50
2022-10-20T08:07:58.435Z,5.90
2022-10-20T08:11:06.011Z,5.80
2022-10-20T08:14:13.839Z,5.90
2022-10-20T08:17:21.360Z,7.20
2022-10-20T08:20:29.061Z,5.90
2022-10-20T08:23:36.806Z,5.60
2022-10-20T08:26:44.115Z,5.40
2022-10-20T08:30:06.366Z,5.40
2022-10-20T08:32:57.294Z,5.60
2022-10-20T08:36:06.288Z,4.90
2022-10-20T08:39:14.196Z,5.40
2022-10-20T08:42:22.091Z,4.90
2022-10-20T08:45:29.324Z,5.50
2022-10-20T08:48:37.459Z,5.60
2022-10-20T08:51:44.867Z,5.40
2022-10-20T08:54:52.430Z,5.40
2022-10-20T08:58:00.451Z,5.50
2022-10-20T09:01:07.663Z,5.00
2022-10-20T09:04:15.581Z,4.90
2022-10-20T09:07:23.463Z,5.20
2022-10-20T09:10:30.957Z,5.00
2022-10-20T09:13:38.575Z,5.90
2022-10-20T09:16:59.289Z,4.70
2022-10-20T09:19:50.818Z,5.40
2022-10-20T09:23:01.332Z,5.20
2022-10-20T09:26:01.049Z,5.60
2022-10-20T09:29:13.453Z,5.60
2022-10-20T09:32:40.822Z,5.30
2022-10-20T09:35:15.898Z,5.90
2022-10-20T09:38:23.728Z,5.20
2022-10-20T09:41:31.258Z,5.70
2022-10-20T09:44:39.371Z,5.50
2022-10-20T09:47:47.197Z,5.10
2022-10-20T09:50:54.912Z,5.60
2022-10-20T09:54:02.403Z,5.60
2022-10-20T09:57:10.076Z,5.30
2022-10-20T10:00:35.954Z,5.20
2022-10-20T10:03:22.894Z,5.20
2022-10-20T10:06:30.626Z,5.00
2022-10-20T10:09:38.386Z,4.90
2022-10-20T10:12:46.336Z,5.00
2022-10-20T10:15:54.467Z,5.00
2022-10-20T10:19:02.433Z,5.00
2022-10-20T10:22:10.340Z,4.70
2022-10-20T10:25:18.568Z,5.10
2022-10-20T10:31:34.219Z,5.10
2022-10-20T10:34:42.352Z,5.30
2022-10-20T10:37:49.820Z,5.70
2022-10-20T10:40:57.955Z,5.30
2022-10-20T10:44:06.273Z,5.20
2022-10-20T10:47:13.740Z,5.40
2022-10-20T10:50:22.014Z,4.80
2022-10-20T10:53:30.666Z,5.20
2022-10-20T10:56:38.155Z,4.70
2022-10-20T10:59:46.417Z,4.70
2022-10-20T11:02:54.626Z,4.40
2022-10-20T11:06:02.017Z,4.70
2022-10-20T11:09:10.308Z,4.20
2022-10-20T11:12:18.240Z,3.90
2022-10-20T11:15:26.081Z,3.80
2022-10-20T11:18:34.293Z,3.90
2022-10-20T11:21:41.910Z,4.00
2022-10-20T11:24:49.879Z,4.20
2022-10-20T11:27:57.723Z,4.10
2022-10-20T11:31:06.020Z,3.70
2022-10-20T11:34:13.913Z,4.20
2022-10-20T11:37:21.562Z,3.20
2022-10-20T11:40:30.003Z,3.20
2022-10-20T11:43:37.877Z,2.90
2022-10-20T11:46:45.695Z,2.90
2022-10-20T11:49:53.847Z,2.90
2022-10-20T11:53:01.557Z,2.60
2022-10-20T11:56:09.290Z,2.40
2022-10-20T11:59:17.519Z,2.50
2022-10-20T12:02:25.080Z,2.20
2022-10-20T12:05:32.912Z,2.50
2022-10-20T12:08:41.116Z,2.40
2022-10-20T12:11:48.496Z,2.70
2022-10-20T12:14:56.583Z,2.20
2022-10-20T12:18:04.775Z,2.60
2022-10-20T12:21:12.133Z,2.30
2022-10-20T12:24:20.326Z,2.50
2022-10-20T12:27:28.488Z,1.90
2022-10-20T12:30:35.959Z,2.40
2022-10-20T12:33:43.737Z,2.80
2022-10-20T12:36:51.563Z,2.80
2022-10-20T12:39:59.493Z,3.40
2022-10-20T12:43:07.773Z,2.80
2022-10-20T12:46:15.820Z,3.10
2022-10-20T12:49:16.459Z,3.40
2022-10-20T12:52:24.430Z,3.40
2022-10-20T12:55:31.917Z,3.60
2022-10-20T12:58:40.055Z,3.70
2022-10-20T13:01:47.890Z,4.30
2022-10-20T13:04:55.600Z,3.90
2022-10-20T13:08:03.778Z,3.90
2022-10-20T13:11:11.578Z,3.80
2022-10-20T13:14:19.440Z,4.40
2022-10-20T13:17:27.409Z,4.70
2022-10-20T13:20:35.305Z,4.10
2022-10-20T13:23:43.191Z,4.80
2022-10-20T13:26:51.164Z,4.80
2022-10-20T13:29:59.323Z,5.00
2022-10-20T13:36:12.115Z,5.00
2022-10-20T13:39:20.015Z,5.40
2022-10-20T13:42:27.898Z,5.00
2022-10-20T13:45:35.829Z,5.00
2022-10-20T13:48:43.682Z,5.20
2022-10-20T13:51:51.138Z,5.20
2022-10-20T13:54:58.977Z,5.80
2022-10-20T13:58:06.933Z,5.50
2022-10-20T14:01:08.037Z,5.10
2022-10-20T14:04:16.362Z,5.00
2022-10-20T14:07:23.965Z,4.90
2022-10-20T14:10:32.164Z,4.80
2022-10-20T14:13:40.372Z,4.90
2022-10-20T14:16:47.697Z,5.10
2022-10-20T14:19:56.015Z,5.50
2022-10-20T14:23:04.425Z,5.40
2022-10-20T14:26:11.757Z,5.30
2022-10-20T14:29:19.918Z,4.60
2022-10-20T14:32:27.690Z,5.40
2022-10-20T14:35:35.453Z,4.80
2022-10-20T14:38:43.724Z,4.70
2022-10-20T14:41:51.602Z,4.90
2022-10-20T14:44:59.625Z,5.10
2022-10-20T14:48:09.112Z,5.40
2022-10-20T14:51:17.424Z,5.20
2022-10-20T14:54:25.287Z,4.30
2022-10-20T14:57:33.294Z,5.00
2022-10-20T15:00:41.151Z,5.20
2022-10-20T15:03:49.633Z,4.40
2022-10-20T15:06:57.467Z,4.30
2022-10-20T15:10:05.595Z,4.60
2022-10-20T15:13:13.936Z,4.20
2022-10-20T15:16:21.811Z,4.70
2022-10-20T15:19:29.666Z,4.30
2022-10-20T15:22:37.604Z,3.90
2022-10-20T15:25:46.000Z,3.90
2022-10-20T15:28:53.853Z,4.70
2022-10-20T15:32:01.824Z,4.40
2022-10-20T15:35:09.795Z,4.10
2022-10-20T15:38:17.066Z,4.80
2022-10-20T15:41:25.136Z,4.40
2022-10-20T15:44:32.817Z,4.30
2022-10-20T15:47:40.047Z,4.10
2022-10-20T15:50:47.949Z,3.70
2022-10-20T15:53:55.629Z,4.00
2022-10-20T15:57:04.060Z,4.10
2022-10-20T16:00:12.299Z,4.00
2022-10-20T16:03:20.111Z,4.30
2022-10-20T16:06:27.760Z,4.30
2022-10-20T16:09:35.869Z,4.80
2022-10-20T16:12:43.404Z,4.30
2022-10-20T16:15:51.078Z,4.60
2022-10-20T16:18:59.191Z,4.80
2022-10-20T16:22:06.936Z,5.10
2022-10-20T16:25:14.608Z,4.70
2022-10-20T16:28:22.757Z,5.00
2022-10-20T16:31:30.006Z,4.30
2022-10-20T16:34:37.522Z,4.80
2022-10-20T16:37:44.975Z,4.20
2022-10-20T16:40:53.282Z,4.30
2022-10-20T16:44:01.446Z,4.40
2022-10-20T16:47:09.804Z,4.20
2022-10-20T16:50:17.813Z,4.30
2022-10-20T16:53:25.206Z,4.20
2022-10-20T16:56:32.924Z,4.20
2022-10-20T16:59:40.605Z,4.40
2022-10-20T17:02:48.486Z,4.30
2022-10-20T17:05:56.143Z,4.80
2022-10-20T17:09:04.479Z,4.50
2022-10-20T17:12:12.073Z,5.00
2022-10-20T17:15:20.354Z,5.00
2022-10-20T17:18:28.463Z,5.00
2022-10-20T17:21:35.903Z,4.40
2022-10-20T17:24:44.214Z,4.70
2022-10-20T17:27:52.395Z,4.60
2022-10-20T17:30:59.854Z,4.30
2022-10-20T17:34:08.191Z,4.20
2022-10-20T17:37:16.641Z,4.40
2022-10-20T17:40:24.095Z,5.60
2022-10-20T17:43:32.172Z,4.80
2022-10-20T17:46:39.961Z,4.90
2022-10-20T17:49:47.918Z,6.00
2022-10-20T17:52:56.041Z,6.70
2022-10-20T17:56:03.210Z,6.60
2022-10-20T18:02:19.172Z,6.80
2022-10-20T18:05:26.543Z,7.70
2022-10-20T18:08:34.684Z,8.10
2022-10-20T18:11:42.425Z,8.20
2022-10-20T18:14:50.275Z,9.60
2022-10-20T18:17:58.465Z,8.80
2022-10-20T18:21:06.025Z,9.30
2022-10-20T18:24:13.829Z,9.00
2022-10-20T18:27:22.165Z,9.90
2022-10-20T18:30:30.099Z,9.90
2022-10-20T18:33:38.081Z,9.30
2022-10-20T18:36:46.453Z,10.90
2022-10-20T18:39:55.921Z,9.90
2022-10-20T18:43:03.702Z,10.30
2022-10-20T18:46:12.504Z,10.90
2022-10-20T18:49:20.903Z,11.30
2022-10-20T18:52:28.194Z,10.80
2022-10-20T18:55:35.545Z,11.30
2022-10-20T18:58:43.293Z,10.90
2022-10-20T19:01:50.588Z,10.40
2022-10-20T19:04:58.610Z,10.70
2022-10-20T19:08:06.257Z,11.00
2022-10-20T19:11:13.789Z,11.30
2022-10-20T19:14:21.941Z,11.80
2022-10-20T19:17:29.117Z,11.10
2022-10-20T19:20:37.041Z,11.10
2022-10-20T19:23:44.629Z,10.90
2022-10-20T19:27:02.411Z,11.20
2022-10-20T19:29:56.987Z,11.00
2022-10-20T19:33:04.556Z,10.50
2022-10-20T19:36:12.074Z,10.50
2022-10-20T19:39:20.200Z,10.10
2022-10-20T19:42:27.843Z,10.90
2022-10-20T19:45:35.026Z,10.20
2022-10-20T19:48:42.298Z,9.50
2022-10-20T19:51:50.208Z,10.30
2022-10-20T19:54:57.908Z,10.20
2022-10-20T19:58:05.169Z,11.30
2022-10-20T20:01:13.308Z,11.10
2022-10-20T20:04:21.740Z,11.50
2022-10-20T20:07:28.911Z,11.00
2022-10-20T20:10:36.622Z,11.20
2022-10-20T20:13:43.872Z,11.10
2022-10-20T20:16:51.106Z,10.70
2022-10-20T20:19:59.214Z,11.00
2022-10-20T20:23:06.335Z,11.50
2022-10-20T20:26:16.174Z,11.40
2022-10-20T20:29:24.136Z,10.40
2022-10-20T20:32:31.266Z,11.10
2022-10-20T20:35:39.235Z,11.20
2022-10-20T20:38:46.677Z,10.00
2022-10-20T20:41:54.349Z,10.60
2022-10-20T20:45:01.917Z,11.20
2022-10-20T20:48:09.222Z,10.30
2022-10-20T20:51:16.700Z,11.50
2022-10-20T20:54:24.831Z,10.00
2022-10-20T20:57:33.632Z,10.50
2022-10-20T21:00:41.113Z,10.90
2022-10-20T21:03:48.201Z,10.60
2022-10-20T21:07:03.181Z,10.40
2022-10-20T21:09:59.276Z,10.50
2022-10-20T21:13:06.695Z,10.50
2022-10-20T21:16:14.501Z,10.30
2022-10-20T21:19:21.770Z,10.20
2022-10-20T21:22:29.216Z,10.10
2022-10-20T21:25:37.047Z,10.70
2022-10-20T21:28:44.165Z,10.00
2022-10-20T21:31:51.976Z,10.70
2022-10-20T21:35:00.041Z,10.80
2022-10-20T21:38:07.171Z,10.30
2022-10-20T21:41:14.840Z,10.00
2022-10-20T21:44:23.349Z,10.50
2022-10-20T21:47:30.522Z,10.80
2022-10-20T21:50:38.625Z,10.00
2022-10-20T21:53:45.925Z,9.60
2022-10-20T21:56:53.573Z,11.40
2022-10-20T22:00:01.585Z,9.90
2022-10-20T22:03:08.749Z,9.90
2022-10-20T22:06:16.806Z,9.80
2022-10-20T22:09:24.487Z,8.80
2022-10-20T22:12:31.687Z,9.20
2022-10-20T22:15:39.600Z,9.20
2022-10-20T22:18:47.589Z,9.60
2022-10-20T22:21:54.863Z,9.60
2022-10-20T22:25:02.801Z,8.80
2022-10-20T22:28:10.330Z,8.40
2022-10-20T22:31:18.246Z,9.20
2022-10-20T22:34:25.862Z,8.70
2022-10-20T22:37:33.433Z,8.50
2022-10-20T22:40:41.314Z,8.40
2022-10-20T22:43:48.805Z,7.80
2022-10-20T22:46:56.432Z,8.00
2022-10-20T22:50:03.996Z,8.30
2022-10-20T22:53:11.170Z,8.70
2022-10-20T22:56:19.149Z,8.60
2022-10-20T22:59:26.707Z,8.90
2022-10-20T23:02:33.907Z,9.40
2022-10-20T23:05:41.840Z,8.90
2022-10-20T23:08:49.925Z,9.50
2022-10-20T23:11:57.100Z,8.80
2022-10-20T23:15:05.112Z,8.90
2022-10-20T23:18:13.192Z,8.60
2022-10-20T23:21:20.413Z,8.70
2022-10-20T23:24:28.162Z,10.00
2022-10-20T23:27:35.602Z,9.40
2022-10-20T23:30:43.940Z,9.40
2022-10-20T23:33:51.785Z,8.80
2022-10-20T23:36:58.889Z,9.80
2022-10-20T23:40:06.818Z,10.70
2022-10-20T23:43:14.818Z,11.20
2022-10-20T23:46:21.956Z,11.20
2022-10-20T23:49:29.801Z,11.70
2022-10-20T23:55:45.803Z,11.30
2022-10-20T23:58:53.633Z,11.60
